FMEE

Roland Garros Airport

St Denis, Reunion
TAF FMEE 182300Z 1900/2006 17006KT 9999 FEW020 PROB30 TEMPO 1900/1904 4000 SHRA SCT022TCU BECMG 1904/1906 04010KT PROB30 TEMPO 1914/1917 4000 SHRA SCT022TCU BECMG 1917/1919 16010KT
Issued Valid From Valid To
Jan-18 @ 23:00 UTC
(4 hours ago)
Jan-19 @ 00:00 UTC
(3 hours ago)
Jan-20 @ 06:00 UTC
(-1 days ago)
Jan-19 @ 00:00 to Jan-19 @ 04:00
TAF FMEE 182300Z 1900/2006 17006KT 9999 FEW020
Wind Visibility Clouds
170° at 6 knots 10,000+ meters
  • Few at 2,000' AGL
Temporary  (Probability 30%) Jan-19 @ 00:00 to Jan-19 @ 04:00
PROB30 TEMPO 1900/1904 4000 SHRA SCT022TCU
Visibility Clouds Conditions
4,007 meters
  • Scattered at 2,200' AGL
  • Rain
Becoming Jan-19 @ 04:00 to Jan-19 @ 17:00
BECMG 1904/1906 04010KT
Wind Visibility Clouds
40° at 10 knots 10,000+ meters
  • Few at 2,000' AGL
Temporary  (Probability 30%) Jan-19 @ 14:00 to Jan-19 @ 17:00
PROB30 TEMPO 1914/1917 4000 SHRA SCT022TCU
Visibility Clouds Conditions
4,007 meters
  • Scattered at 2,200' AGL
  • Rain
Becoming Jan-19 @ 17:00 to Jan-20 @ 06:00
BECMG 1917/1919 16010KT
Wind Visibility Clouds
160° at 10 knots 10,000+ meters
  • Few at 2,000' AGL
TAF FMEE 182300Z 1900/2006 17006KT 9999 FEW020 PROB30 TEMPO 1900/1904 4000 SHRA SCT022TCU BECMG 1904/1906 04010KT PROB30 TEMPO 1914/1917 4000 SHRA SCT022TCU BECMG 1917/1919 16010KT
Issued Jan-18 @ 23:00 UTC
(4 hours ago)
Valid From Jan-19 @ 00:00 UTC
(3 hours ago)
Valid To Jan-20 @ 06:00 UTC
(-1 days ago)
Jan-19 @ 00:00 - Jan-19 @ 04:00
Wind Visibility
170° at 6 knots 10,000+ meters
Clouds
  • Few at 2,000' AGL
Probability 30% Temporary Jan-19 @ 00:00 - Jan-19 @ 04:00
Clouds
  • Scattered at 2,200' AGL
Conditions
  • Rain
Becoming Jan-19 @ 04:00 - Jan-19 @ 17:00
Wind Visibility
40° at 10 knots 10,000+ meters
Clouds
  • Few at 2,000' AGL
Probability 30% Temporary Jan-19 @ 14:00 - Jan-19 @ 17:00
Clouds
  • Scattered at 2,200' AGL
Conditions
  • Rain
Becoming Jan-19 @ 17:00 - Jan-20 @ 06:00
Wind Visibility
160° at 10 knots 10,000+ meters
Clouds
  • Few at 2,000' AGL